Aviation Digital Data Service (ADDS)

Output produced by METARs form (0918 UTC 25 February 2018)
found at http://aviationweather.gov/adds/metars/
 
KESN 250909Z AUTO 13006KT 3/4SM BR OVC003 09/08 A3005 RMK AO2 T00850076